sensor_id;sensor_type;location;lat;lon;timestamp;temperature;humidity
1806;DHT22;901;48.142;11.516;2022-08-21T00:01:14;17.10;99.90
1806;DHT22;901;48.142;11.516;2022-08-21T00:03:44;17.10;99.90
1806;DHT22;901;48.142;11.516;2022-08-21T00:06:11;17.00;99.90
1806;DHT22;901;48.142;11.516;2022-08-21T00:08:38;17.00;99.90
1806;DHT22;901;48.142;11.516;2022-08-21T00:11:05;17.00;99.90
1806;DHT22;901;48.142;11.516;2022-08-21T00:13:32;16.90;99.90
1806;DHT22;901;48.142;11.516;2022-08-21T00:16:00;16.80;99.90
1806;DHT22;901;48.142;11.516;2022-08-21T00:18:27;16.80;99.90
1806;DHT22;901;48.142;11.516;2022-08-21T00:20:56;16.80;99.90
1806;DHT22;901;48.142;11.516;2022-08-21T00:23:24;16.80;99.90
1806;DHT22;901;48.142;11.516;2022-08-21T00:25:51;16.80;99.90
1806;DHT22;901;48.142;11.516;2022-08-21T00:28:18;16.70;99.90
1806;DHT22;901;48.142;11.516;2022-08-21T00:30:45;16.70;99.90
1806;DHT22;901;48.142;11.516;2022-08-21T00:33:12;16.70;99.90
1806;DHT22;901;48.142;11.516;2022-08-21T00:35:41;16.60;99.90
1806;DHT22;901;48.142;11.516;2022-08-21T00:38:10;16.60;99.90
1806;DHT22;901;48.142;11.516;2022-08-21T00:40:41;16.60;99.90
1806;DHT22;901;48.142;11.516;2022-08-21T00:43:10;16.60;99.90
1806;DHT22;901;48.142;11.516;2022-08-21T00:45:37;16.50;99.90
1806;DHT22;901;48.142;11.516;2022-08-21T00:48:05;16.50;99.90
1806;DHT22;901;48.142;11.516;2022-08-21T00:50:34;16.50;99.90
1806;DHT22;901;48.142;11.516;2022-08-21T00:53:03;16.40;99.90
1806;DHT22;901;48.142;11.516;2022-08-21T00:55:34;16.40;99.90
1806;DHT22;901;48.142;11.516;2022-08-21T00:58:04;16.30;99.90
1806;DHT22;901;48.142;11.516;2022-08-21T01:00:34;16.30;99.90
1806;DHT22;901;48.142;11.516;2022-08-21T01:03:06;16.30;99.90
1806;DHT22;901;48.142;11.516;2022-08-21T01:05:34;16.30;99.90
1806;DHT22;901;48.142;11.516;2022-08-21T01:08:01;16.20;99.90
1806;DHT22;901;48.142;11.516;2022-08-21T01:10:29;16.20;99.90
1806;DHT22;901;48.142;11.516;2022-08-21T01:12:58;16.20;99.90
1806;DHT22;901;48.142;11.516;2022-08-21T01:15:27;16.10;99.90
1806;DHT22;901;48.142;11.516;2022-08-21T01:17:55;16.10;99.90
1806;DHT22;901;48.142;11.516;2022-08-21T01:20:23;16.10;99.90
1806;DHT22;901;48.142;11.516;2022-08-21T01:22:51;16.00;99.90
1806;DHT22;901;48.142;11.516;2022-08-21T01:25:18;16.00;99.90
1806;DHT22;901;48.142;11.516;2022-08-21T01:27:46;16.00;99.90
1806;DHT22;901;48.142;11.516;2022-08-21T01:30:16;15.90;99.90
1806;DHT22;901;48.142;11.516;2022-08-21T01:32:43;15.90;99.90
1806;DHT22;901;48.142;11.516;2022-08-21T01:35:11;15.90;99.90
1806;DHT22;901;48.142;11.516;2022-08-21T01:37:38;15.90;99.90
1806;DHT22;901;48.142;11.516;2022-08-21T01:40:08;15.90;99.90
1806;DHT22;901;48.142;11.516;2022-08-21T01:42:36;15.90;99.90
1806;DHT22;901;48.142;11.516;2022-08-21T01:45:04;15.80;99.90
1806;DHT22;901;48.142;11.516;2022-08-21T01:47:31;15.80;99.90
1806;DHT22;901;48.142;11.516;2022-08-21T01:49:58;15.80;99.90
1806;DHT22;901;48.142;11.516;2022-08-21T01:52:26;15.80;99.90
1806;DHT22;901;48.142;11.516;2022-08-21T01:54:53;15.70;99.90
1806;DHT22;901;48.142;11.516;2022-08-21T01:57:21;15.70;99.90
1806;DHT22;901;48.142;11.516;2022-08-21T01:59:48;15.70;99.90
1806;DHT22;901;48.142;11.516;2022-08-21T02:02:15;15.70;99.90
1806;DHT22;901;48.142;11.516;2022-08-21T02:04:42;15.70;99.90
1806;DHT22;901;48.142;11.516;2022-08-21T02:07:09;15.70;99.90
1806;DHT22;901;48.142;11.516;2022-08-21T02:09:36;15.60;99.90
1806;DHT22;901;48.142;11.516;2022-08-21T02:12:03;15.60;99.90
1806;DHT22;901;48.142;11.516;2022-08-21T02:14:32;15.60;99.90
1806;DHT22;901;48.142;11.516;2022-08-21T02:17:00;15.60;99.90
1806;DHT22;901;48.142;11.516;2022-08-21T02:19:26;15.50;99.90
1806;DHT22;901;48.142;11.516;2022-08-21T02:21:53;15.50;99.90
1806;DHT22;901;48.142;11.516;2022-08-21T02:24:20;15.50;99.90
1806;DHT22;901;48.142;11.516;2022-08-21T02:26:47;15.50;99.90
1806;DHT22;901;48.142;11.516;2022-08-21T02:29:14;15.50;99.90
1806;DHT22;901;48.142;11.516;2022-08-21T02:31:42;15.50;99.90
1806;DHT22;901;48.142;11.516;2022-08-21T02:34:09;15.50;99.90
1806;DHT22;901;48.142;11.516;2022-08-21T02:36:36;15.50;99.90
1806;DHT22;901;48.142;11.516;2022-08-21T02:39:03;15.40;99.90
1806;DHT22;901;48.142;11.516;2022-08-21T02:41:30;15.40;99.90
1806;DHT22;901;48.142;11.516;2022-08-21T02:43:57;15.40;99.90
1806;DHT22;901;48.142;11.516;2022-08-21T02:46:24;15.40;99.90
1806;DHT22;901;48.142;11.516;2022-08-21T02:48:52;15.40;99.90
1806;DHT22;901;48.142;11.516;2022-08-21T02:51:19;15.40;99.90
1806;DHT22;901;48.142;11.516;2022-08-21T02:53:48;15.30;99.90
1806;DHT22;901;48.142;11.516;2022-08-21T02:56:18;15.30;99.90
1806;DHT22;901;48.142;11.516;2022-08-21T02:58:47;15.30;99.90
1806;DHT22;901;48.142;11.516;2022-08-21T03:01:15;15.40;99.90
1806;DHT22;901;48.142;11.516;2022-08-21T03:03:44;15.30;99.90
1806;DHT22;901;48.142;11.516;2022-08-21T03:06:14;15.30;99.90
1806;DHT22;901;48.142;11.516;2022-08-21T03:08:41;15.30;99.90
1806;DHT22;901;48.142;11.516;2022-08-21T03:11:11;15.20;99.90
1806;DHT22;901;48.142;11.516;2022-08-21T03:13:38;15.20;99.90
1806;DHT22;901;48.142;11.516;2022-08-21T03:16:05;15.20;99.90
1806;DHT22;901;48.142;11.516;2022-08-21T03:18:33;15.20;99.90
1806;DHT22;901;48.142;11.516;2022-08-21T03:20:59;15.20;99.90
1806;DHT22;901;48.142;11.516;2022-08-21T03:23:28;15.20;99.90
1806;DHT22;901;48.142;11.516;2022-08-21T03:25:56;15.20;99.90
1806;DHT22;901;48.142;11.516;2022-08-21T03:28:23;15.10;99.90
1806;DHT22;901;48.142;11.516;2022-08-21T03:30:51;15.10;99.90
1806;DHT22;901;48.142;11.516;2022-08-21T03:33:18;15.10;99.90
1806;DHT22;901;48.142;11.516;2022-08-21T03:35:56;15.10;99.90
1806;DHT22;901;48.142;11.516;2022-08-21T03:38:24;15.10;99.90
1806;DHT22;901;48.142;11.516;2022-08-21T03:40:53;15.10;99.90
1806;DHT22;901;48.142;11.516;2022-08-21T03:43:20;15.00;99.90
1806;DHT22;901;48.142;11.516;2022-08-21T03:45:47;15.00;99.90
1806;DHT22;901;48.142;11.516;2022-08-21T03:48:15;15.00;99.90
1806;DHT22;901;48.142;11.516;2022-08-21T03:50:43;15.00;99.90
1806;DHT22;901;48.142;11.516;2022-08-21T03:53:13;15.00;99.90
1806;DHT22;901;48.142;11.516;2022-08-21T03:55:40;15.00;99.90
1806;DHT22;901;48.142;11.516;2022-08-21T03:58:09;15.00;99.90
1806;DHT22;901;48.142;11.516;2022-08-21T04:00:36;15.00;99.90
1806;DHT22;901;48.142;11.516;2022-08-21T04:03:03;14.90;99.90
1806;DHT22;901;48.142;11.516;2022-08-21T04:05:30;15.00;99.90
1806;DHT22;901;48.142;11.516;2022-08-21T04:07:58;14.90;99.90
1806;DHT22;901;48.142;11.516;2022-08-21T04:10:26;15.00;99.90
1806;DHT22;901;48.142;11.516;2022-08-21T04:12:54;15.00;99.90
1806;DHT22;901;48.142;11.516;2022-08-21T04:15:24;14.90;99.90
1806;DHT22;901;48.142;11.516;2022-08-21T04:17:51;15.00;99.90
1806;DHT22;901;48.142;11.516;2022-08-21T04:20:19;14.90;99.90
1806;DHT22;901;48.142;11.516;2022-08-21T04:22:47;14.90;99.90
1806;DHT22;901;48.142;11.516;2022-08-21T04:25:15;15.00;99.90
1806;DHT22;901;48.142;11.516;2022-08-21T04:27:42;15.00;99.90
1806;DHT22;901;48.142;11.516;2022-08-21T04:30:11;15.00;99.90
1806;DHT22;901;48.142;11.516;2022-08-21T04:32:42;15.00;99.90
1806;DHT22;901;48.142;11.516;2022-08-21T04:35:10;15.00;99.90
1806;DHT22;901;48.142;11.516;2022-08-21T04:37:37;15.00;99.90
1806;DHT22;901;48.142;11.516;2022-08-21T04:40:06;15.10;99.90
1806;DHT22;901;48.142;11.516;2022-08-21T04:42:41;15.00;99.90
1806;DHT22;901;48.142;11.516;2022-08-21T04:45:13;15.10;99.90
1806;DHT22;901;48.142;11.516;2022-08-21T04:47:42;15.10;99.90
1806;DHT22;901;48.142;11.516;2022-08-21T04:50:09;15.10;99.90
1806;DHT22;901;48.142;11.516;2022-08-21T04:52:35;15.10;99.90
1806;DHT22;901;48.142;11.516;2022-08-21T04:55:03;15.20;99.90
1806;DHT22;901;48.142;11.516;2022-08-21T04:57:30;15.20;99.90
1806;DHT22;901;48.142;11.516;2022-08-21T04:59:57;15.30;99.90
1806;DHT22;901;48.142;11.516;2022-08-21T05:02:24;15.30;99.90
1806;DHT22;901;48.142;11.516;2022-08-21T05:04:54;15.60;99.90
1806;DHT22;901;48.142;11.516;2022-08-21T05:07:24;16.10;99.90
1806;DHT22;901;48.142;11.516;2022-08-21T05:09:53;16.60;99.90
1806;DHT22;901;48.142;11.516;2022-08-21T05:12:21;17.00;99.90
1806;DHT22;901;48.142;11.516;2022-08-21T05:14:48;17.50;99.90
1806;DHT22;901;48.142;11.516;2022-08-21T05:17:15;18.00;99.90
1806;DHT22;901;48.142;11.516;2022-08-21T05:19:42;18.50;99.90
1806;DHT22;901;48.142;11.516;2022-08-21T05:22:10;18.90;99.90
1806;DHT22;901;48.142;11.516;2022-08-21T05:24:37;19.40;99.90
1806;DHT22;901;48.142;11.516;2022-08-21T05:27:04;19.90;99.90
1806;DHT22;901;48.142;11.516;2022-08-21T05:29:32;20.20;99.90
1806;DHT22;901;48.142;11.516;2022-08-21T05:31:59;20.40;99.90
1806;DHT22;901;48.142;11.516;2022-08-21T05:34:26;20.60;99.90
1806;DHT22;901;48.142;11.516;2022-08-21T05:36:53;20.90;99.90
1806;DHT22;901;48.142;11.516;2022-08-21T05:39:21;21.10;99.90
1806;DHT22;901;48.142;11.516;2022-08-21T05:41:48;21.30;99.90
1806;DHT22;901;48.142;11.516;2022-08-21T05:44:15;21.50;99.90
1806;DHT22;901;48.142;11.516;2022-08-21T05:46:42;21.70;99.90
1806;DHT22;901;48.142;11.516;2022-08-21T05:49:09;21.80;99.90
1806;DHT22;901;48.142;11.516;2022-08-21T05:51:38;21.90;99.90
1806;DHT22;901;48.142;11.516;2022-08-21T05:54:05;22.00;99.90
1806;DHT22;901;48.142;11.516;2022-08-21T05:56:34;22.00;99.90
1806;DHT22;901;48.142;11.516;2022-08-21T05:59:01;22.10;99.90
1806;DHT22;901;48.142;11.516;2022-08-21T06:01:27;22.10;99.90
1806;DHT22;901;48.142;11.516;2022-08-21T06:03:54;22.10;99.90
1806;DHT22;901;48.142;11.516;2022-08-21T06:06:21;22.10;99.90
1806;DHT22;901;48.142;11.516;2022-08-21T06:08:48;22.00;99.90
1806;DHT22;901;48.142;11.516;2022-08-21T06:11:15;21.80;99.90
1806;DHT22;901;48.142;11.516;2022-08-21T06:13:43;21.60;99.90
1806;DHT22;901;48.142;11.516;2022-08-21T06:16:11;21.30;99.90
1806;DHT22;901;48.142;11.516;2022-08-21T06:18:39;21.00;99.90
1806;DHT22;901;48.142;11.516;2022-08-21T06:21:07;20.80;99.90
1806;DHT22;901;48.142;11.516;2022-08-21T06:23:35;20.60;99.90
1806;DHT22;901;48.142;11.516;2022-08-21T06:26:02;20.50;99.90
1806;DHT22;901;48.142;11.516;2022-08-21T06:28:30;20.40;99.90
1806;DHT22;901;48.142;11.516;2022-08-21T06:30:59;20.30;99.90
1806;DHT22;901;48.142;11.516;2022-08-21T06:33:26;20.20;99.90
1806;DHT22;901;48.142;11.516;2022-08-21T06:35:53;20.10;99.90
1806;DHT22;901;48.142;11.516;2022-08-21T06:38:19;20.10;99.90
1806;DHT22;901;48.142;11.516;2022-08-21T06:40:46;20.00;99.90
1806;DHT22;901;48.142;11.516;2022-08-21T06:43:15;20.00;99.90
1806;DHT22;901;48.142;11.516;2022-08-21T06:45:42;20.00;99.90
1806;DHT22;901;48.142;11.516;2022-08-21T06:48:11;20.00;99.90
1806;DHT22;901;48.142;11.516;2022-08-21T06:50:38;20.10;99.90
1806;DHT22;901;48.142;11.516;2022-08-21T06:53:08;20.10;99.90
1806;DHT22;901;48.142;11.516;2022-08-21T06:55:35;20.10;99.90
1806;DHT22;901;48.142;11.516;2022-08-21T06:58:02;20.10;99.90
1806;DHT22;901;48.142;11.516;2022-08-21T07:00:30;20.20;99.90
1806;DHT22;901;48.142;11.516;2022-08-21T07:02:57;20.20;99.90
1806;DHT22;901;48.142;11.516;2022-08-21T07:05:27;20.30;99.90
1806;DHT22;901;48.142;11.516;2022-08-21T07:07:54;20.30;99.90
1806;DHT22;901;48.142;11.516;2022-08-21T07:10:22;20.30;99.90
1806;DHT22;901;48.142;11.516;2022-08-21T07:12:49;20.30;99.90
1806;DHT22;901;48.142;11.516;2022-08-21T07:15:16;20.40;99.90
1806;DHT22;901;48.142;11.516;2022-08-21T07:17:43;20.40;99.90
1806;DHT22;901;48.142;11.516;2022-08-21T07:20:09;20.20;99.90
1806;DHT22;901;48.142;11.516;2022-08-21T07:22:38;20.20;99.90
1806;DHT22;901;48.142;11.516;2022-08-21T07:25:06;20.30;99.90
1806;DHT22;901;48.142;11.516;2022-08-21T07:27:33;20.30;99.90
1806;DHT22;901;48.142;11.516;2022-08-21T07:30:00;20.20;99.90
1806;DHT22;901;48.142;11.516;2022-08-21T07:32:27;20.10;99.90
1806;DHT22;901;48.142;11.516;2022-08-21T07:34:54;20.30;99.90
1806;DHT22;901;48.142;11.516;2022-08-21T07:37:21;20.40;99.90
1806;DHT22;901;48.142;11.516;2022-08-21T07:39:49;20.60;99.90
1806;DHT22;901;48.142;11.516;2022-08-21T07:42:17;20.60;99.90
1806;DHT22;901;48.142;11.516;2022-08-21T07:44:44;20.60;99.90
1806;DHT22;901;48.142;11.516;2022-08-21T07:47:10;20.70;99.90
1806;DHT22;901;48.142;11.516;2022-08-21T07:49:37;20.60;99.90
1806;DHT22;901;48.142;11.516;2022-08-21T07:52:05;20.60;99.90
1806;DHT22;901;48.142;11.516;2022-08-21T07:54:32;20.50;99.90
1806;DHT22;901;48.142;11.516;2022-08-21T07:57:00;20.50;99.90
1806;DHT22;901;48.142;11.516;2022-08-21T07:59:27;20.60;99.90
1806;DHT22;901;48.142;11.516;2022-08-21T08:01:54;20.80;99.90
1806;DHT22;901;48.142;11.516;2022-08-21T08:04:22;20.80;99.90
1806;DHT22;901;48.142;11.516;2022-08-21T08:06:48;20.70;99.90
1806;DHT22;901;48.142;11.516;2022-08-21T08:09:15;20.80;99.90
1806;DHT22;901;48.142;11.516;2022-08-21T08:11:43;20.90;99.90
1806;DHT22;901;48.142;11.516;2022-08-21T08:14:11;21.00;99.90
1806;DHT22;901;48.142;11.516;2022-08-21T08:16:38;21.10;99.90
1806;DHT22;901;48.142;11.516;2022-08-21T08:19:05;21.20;99.90
1806;DHT22;901;48.142;11.516;2022-08-21T08:21:32;21.30;99.90
1806;DHT22;901;48.142;11.516;2022-08-21T08:24:01;21.40;99.90
1806;DHT22;901;48.142;11.516;2022-08-21T08:26:27;21.40;99.90
1806;DHT22;901;48.142;11.516;2022-08-21T08:28:54;21.50;99.90
1806;DHT22;901;48.142;11.516;2022-08-21T08:31:22;21.50;99.90
1806;DHT22;901;48.142;11.516;2022-08-21T08:33:49;21.40;99.90
1806;DHT22;901;48.142;11.516;2022-08-21T08:36:17;21.60;99.90
1806;DHT22;901;48.142;11.516;2022-08-21T08:38:45;21.70;99.90
1806;DHT22;901;48.142;11.516;2022-08-21T08:41:14;21.90;99.90
1806;DHT22;901;48.142;11.516;2022-08-21T08:43:48;21.70;99.90
1806;DHT22;901;48.142;11.516;2022-08-21T08:46:18;21.50;99.90
1806;DHT22;901;48.142;11.516;2022-08-21T08:48:51;21.40;99.90
1806;DHT22;901;48.142;11.516;2022-08-21T08:51:23;21.40;99.90
1806;DHT22;901;48.142;11.516;2022-08-21T08:53:52;21.40;99.90
1806;DHT22;901;48.142;11.516;2022-08-21T08:56:26;21.60;99.90
1806;DHT22;901;48.142;11.516;2022-08-21T08:58:56;21.70;99.90
1806;DHT22;901;48.142;11.516;2022-08-21T09:01:24;21.90;99.90
1806;DHT22;901;48.142;11.516;2022-08-21T09:03:52;22.10;99.90
1806;DHT22;901;48.142;11.516;2022-08-21T09:06:28;22.10;99.90
1806;DHT22;901;48.142;11.516;2022-08-21T09:09:05;22.00;99.90
1806;DHT22;901;48.142;11.516;2022-08-21T09:11:44;22.00;99.90
1806;DHT22;901;48.142;11.516;2022-08-21T09:14:19;22.00;99.90
1806;DHT22;901;48.142;11.516;2022-08-21T09:16:56;22.10;99.90
1806;DHT22;901;48.142;11.516;2022-08-21T09:19:39;22.20;99.90
1806;DHT22;901;48.142;11.516;2022-08-21T09:22:19;22.30;99.90
1806;DHT22;901;48.142;11.516;2022-08-21T09:24:56;22.50;99.90
1806;DHT22;901;48.142;11.516;2022-08-21T09:27:29;22.70;99.90
1806;DHT22;901;48.142;11.516;2022-08-21T09:29:56;22.50;99.90
1806;DHT22;901;48.142;11.516;2022-08-21T09:32:26;22.30;99.90
1806;DHT22;901;48.142;11.516;2022-08-21T09:35:00;22.30;99.90
1806;DHT22;901;48.142;11.516;2022-08-21T09:37:29;22.50;99.90
1806;DHT22;901;48.142;11.516;2022-08-21T09:39:57;22.80;99.90
1806;DHT22;901;48.142;11.516;2022-08-21T09:42:26;23.10;99.90
1806;DHT22;901;48.142;11.516;2022-08-21T09:45:11;23.40;99.90
1806;DHT22;901;48.142;11.516;2022-08-21T09:47:40;23.90;99.90
1806;DHT22;901;48.142;11.516;2022-08-21T09:50:14;24.30;99.90
1806;DHT22;901;48.142;11.516;2022-08-21T09:52:46;24.30;99.90
1806;DHT22;901;48.142;11.516;2022-08-21T09:55:18;24.40;99.90
1806;DHT22;901;48.142;11.516;2022-08-21T09:57:59;24.30;99.90
1806;DHT22;901;48.142;11.516;2022-08-21T10:00:30;24.60;99.90
1806;DHT22;901;48.142;11.516;2022-08-21T10:03:09;24.40;99.90
1806;DHT22;901;48.142;11.516;2022-08-21T10:05:38;24.20;99.90
1806;DHT22;901;48.142;11.516;2022-08-21T10:08:16;24.30;99.90
1806;DHT22;901;48.142;11.516;2022-08-21T10:10:44;24.50;99.90
1806;DHT22;901;48.142;11.516;2022-08-21T10:13:14;24.80;99.90
1806;DHT22;901;48.142;11.516;2022-08-21T10:15:51;25.40;99.90
1806;DHT22;901;48.142;11.516;2022-08-21T10:18:24;25.10;99.90
1806;DHT22;901;48.142;11.516;2022-08-21T10:21:00;25.10;99.90
1806;DHT22;901;48.142;11.516;2022-08-21T10:23:37;24.90;99.90
1806;DHT22;901;48.142;11.516;2022-08-21T10:26:11;24.80;99.90
1806;DHT22;901;48.142;11.516;2022-08-21T10:28:47;24.60;99.90
1806;DHT22;901;48.142;11.516;2022-08-21T10:31:32;24.90;99.90
1806;DHT22;901;48.142;11.516;2022-08-21T10:34:16;25.20;99.90
1806;DHT22;901;48.142;11.516;2022-08-21T10:36:49;25.50;99.90
1806;DHT22;901;48.142;11.516;2022-08-21T10:39:22;25.50;99.90
1806;DHT22;901;48.142;11.516;2022-08-21T10:42:11;25.10;99.90
1806;DHT22;901;48.142;11.516;2022-08-21T10:44:49;24.80;99.90
1806;DHT22;901;48.142;11.516;2022-08-21T10:47:28;24.40;99.90
1806;DHT22;901;48.142;11.516;2022-08-21T10:50:02;24.10;99.90
1806;DHT22;901;48.142;11.516;2022-08-21T10:52:42;24.00;99.90
1806;DHT22;901;48.142;11.516;2022-08-21T10:55:16;23.90;99.90
1806;DHT22;901;48.142;11.516;2022-08-21T10:57:47;24.10;99.90
1806;DHT22;901;48.142;11.516;2022-08-21T11:00:19;24.20;99.90
1806;DHT22;901;48.142;11.516;2022-08-21T11:02:50;24.70;99.90
1806;DHT22;901;48.142;11.516;2022-08-21T11:05:24;24.90;99.90
1806;DHT22;901;48.142;11.516;2022-08-21T11:07:55;24.90;99.90
1806;DHT22;901;48.142;11.516;2022-08-21T11:10:26;24.60;99.90
1806;DHT22;901;48.142;11.516;2022-08-21T11:12:56;24.20;99.90
1806;DHT22;901;48.142;11.516;2022-08-21T11:15:35;24.20;99.90
1806;DHT22;901;48.142;11.516;2022-08-21T11:18:14;24.20;99.90
1806;DHT22;901;48.142;11.516;2022-08-21T11:20:46;24.10;99.90
1806;DHT22;901;48.142;11.516;2022-08-21T11:23:20;24.00;99.90
1806;DHT22;901;48.142;11.516;2022-08-21T11:25:51;23.90;99.90
1806;DHT22;901;48.142;11.516;2022-08-21T11:28:23;24.00;99.90
1806;DHT22;901;48.142;11.516;2022-08-21T11:30:58;24.20;99.90
1806;DHT22;901;48.142;11.516;2022-08-21T11:33:35;24.40;99.90
1806;DHT22;901;48.142;11.516;2022-08-21T11:36:14;24.70;99.90
1806;DHT22;901;48.142;11.516;2022-08-21T11:38:48;24.70;99.90
1806;DHT22;901;48.142;11.516;2022-08-21T11:41:23;24.30;99.90
1806;DHT22;901;48.142;11.516;2022-08-21T11:43:57;24.00;99.90
1806;DHT22;901;48.142;11.516;2022-08-21T11:46:33;23.90;99.90
1806;DHT22;901;48.142;11.516;2022-08-21T11:49:16;23.90;99.90
1806;DHT22;901;48.142;11.516;2022-08-21T11:51:50;23.90;99.90
1806;DHT22;901;48.142;11.516;2022-08-21T11:54:26;23.90;99.90
1806;DHT22;901;48.142;11.516;2022-08-21T11:56:58;24.10;99.90
1806;DHT22;901;48.142;11.516;2022-08-21T11:59:32;24.30;99.90
1806;DHT22;901;48.142;11.516;2022-08-21T12:02:01;24.80;99.90
1806;DHT22;901;48.142;11.516;2022-08-21T12:04:31;25.30;99.90
1806;DHT22;901;48.142;11.516;2022-08-21T12:07:11;25.70;99.90
1806;DHT22;901;48.142;11.516;2022-08-21T12:09:40;25.50;99.90
1806;DHT22;901;48.142;11.516;2022-08-21T12:12:12;25.30;99.90
1806;DHT22;901;48.142;11.516;2022-08-21T12:14:42;25.10;99.90
1806;DHT22;901;48.142;11.516;2022-08-21T12:17:18;24.90;99.90
1806;DHT22;901;48.142;11.516;2022-08-21T12:19:57;24.80;99.90
1806;DHT22;901;48.142;11.516;2022-08-21T12:22:36;24.90;99.90
1806;DHT22;901;48.142;11.516;2022-08-21T12:25:08;25.10;99.90
1806;DHT22;901;48.142;11.516;2022-08-21T12:27:45;25.30;99.90
1806;DHT22;901;48.142;11.516;2022-08-21T12:30:33;25.30;99.90
1806;DHT22;901;48.142;11.516;2022-08-21T12:33:02;25.20;99.90
1806;DHT22;901;48.142;11.516;2022-08-21T12:35:33;25.40;99.90
1806;DHT22;901;48.142;11.516;2022-08-21T12:38:07;25.30;99.90
1806;DHT22;901;48.142;11.516;2022-08-21T12:40:41;25.30;99.90
1806;DHT22;901;48.142;11.516;2022-08-21T12:43:13;25.50;99.90
1806;DHT22;901;48.142;11.516;2022-08-21T12:45:44;25.60;99.90
1806;DHT22;901;48.142;11.516;2022-08-21T12:48:16;25.80;99.90
1806;DHT22;901;48.142;11.516;2022-08-21T12:50:48;25.60;99.90
1806;DHT22;901;48.142;11.516;2022-08-21T12:53:26;25.70;99.90
1806;DHT22;901;48.142;11.516;2022-08-21T12:55:56;25.60;99.90
1806;DHT22;901;48.142;11.516;2022-08-21T12:58:27;25.70;99.90
1806;DHT22;901;48.142;11.516;2022-08-21T13:00:57;25.60;99.90
1806;DHT22;901;48.142;11.516;2022-08-21T13:03:26;25.30;99.90
1806;DHT22;901;48.142;11.516;2022-08-21T13:05:53;25.10;99.90
1806;DHT22;901;48.142;11.516;2022-08-21T13:08:22;25.10;99.90
1806;DHT22;901;48.142;11.516;2022-08-21T13:10:59;25.20;99.90
1806;DHT22;901;48.142;11.516;2022-08-21T13:13:28;25.30;99.90
1806;DHT22;901;48.142;11.516;2022-08-21T13:16:00;25.30;99.90
1806;DHT22;901;48.142;11.516;2022-08-21T13:18:31;25.60;99.90
1806;DHT22;901;48.142;11.516;2022-08-21T13:21:07;25.80;99.90
1806;DHT22;901;48.142;11.516;2022-08-21T13:23:36;25.70;99.90
1806;DHT22;901;48.142;11.516;2022-08-21T13:26:14;25.70;99.90
1806;DHT22;901;48.142;11.516;2022-08-21T13:28:41;25.80;99.90
1806;DHT22;901;48.142;11.516;2022-08-21T13:31:10;25.60;99.90
1806;DHT22;901;48.142;11.516;2022-08-21T13:33:38;25.60;99.90
1806;DHT22;901;48.142;11.516;2022-08-21T13:36:10;25.50;99.90
1806;DHT22;901;48.142;11.516;2022-08-21T13:38:41;25.50;99.90
1806;DHT22;901;48.142;11.516;2022-08-21T13:41:12;25.60;99.90
1806;DHT22;901;48.142;11.516;2022-08-21T13:43:48;25.60;99.90
1806;DHT22;901;48.142;11.516;2022-08-21T13:46:15;25.60;99.90
1806;DHT22;901;48.142;11.516;2022-08-21T13:48:44;25.60;99.90
1806;DHT22;901;48.142;11.516;2022-08-21T13:51:12;25.80;99.90
1806;DHT22;901;48.142;11.516;2022-08-21T13:53:46;25.90;99.90
1806;DHT22;901;48.142;11.516;2022-08-21T13:56:28;26.10;99.90
1806;DHT22;901;48.142;11.516;2022-08-21T13:58:59;26.20;99.90
1806;DHT22;901;48.142;11.516;2022-08-21T14:01:28;26.20;99.90
1806;DHT22;901;48.142;11.516;2022-08-21T14:04:05;26.20;99.90
1806;DHT22;901;48.142;11.516;2022-08-21T14:06:35;26.00;99.90
1806;DHT22;901;48.142;11.516;2022-08-21T14:09:23;25.70;99.90
1806;DHT22;901;48.142;11.516;2022-08-21T14:11:50;25.60;99.90
1806;DHT22;901;48.142;11.516;2022-08-21T14:14:24;25.70;99.90
1806;DHT22;901;48.142;11.516;2022-08-21T14:16:56;25.50;99.90
1806;DHT22;901;48.142;11.516;2022-08-21T14:19:25;25.50;99.90
1806;DHT22;901;48.142;11.516;2022-08-21T14:21:52;25.70;99.90
1806;DHT22;901;48.142;11.516;2022-08-21T14:24:28;26.00;99.90
1806;DHT22;901;48.142;11.516;2022-08-21T14:27:00;26.30;99.90
1806;DHT22;901;48.142;11.516;2022-08-21T14:29:37;26.50;99.90
1806;DHT22;901;48.142;11.516;2022-08-21T14:32:11;26.40;99.90
1806;DHT22;901;48.142;11.516;2022-08-21T14:34:38;26.30;99.90
1806;DHT22;901;48.142;11.516;2022-08-21T14:37:05;26.00;99.90
1806;DHT22;901;48.142;11.516;2022-08-21T14:39:32;26.00;99.90
1806;DHT22;901;48.142;11.516;2022-08-21T14:42:00;26.20;99.90
1806;DHT22;901;48.142;11.516;2022-08-21T14:44:27;26.30;99.90
1806;DHT22;901;48.142;11.516;2022-08-21T14:46:55;25.90;99.90
1806;DHT22;901;48.142;11.516;2022-08-21T14:49:24;26.10;99.90
1806;DHT22;901;48.142;11.516;2022-08-21T14:51:53;26.00;99.90
1806;DHT22;901;48.142;11.516;2022-08-21T14:54:22;25.90;99.90
1806;DHT22;901;48.142;11.516;2022-08-21T14:56:50;25.80;99.90
1806;DHT22;901;48.142;11.516;2022-08-21T14:59:17;25.80;99.90
1806;DHT22;901;48.142;11.516;2022-08-21T15:01:45;25.60;99.90
1806;DHT22;901;48.142;11.516;2022-08-21T15:04:13;25.60;99.90
1806;DHT22;901;48.142;11.516;2022-08-21T15:06:40;25.60;99.90
1806;DHT22;901;48.142;11.516;2022-08-21T15:09:07;25.70;99.90
1806;DHT22;901;48.142;11.516;2022-08-21T15:11:34;25.60;99.90
1806;DHT22;901;48.142;11.516;2022-08-21T15:14:06;25.40;99.90
1806;DHT22;901;48.142;11.516;2022-08-21T15:16:35;25.30;99.90
1806;DHT22;901;48.142;11.516;2022-08-21T15:19:02;25.30;99.90
1806;DHT22;901;48.142;11.516;2022-08-21T15:21:30;25.20;99.90
1806;DHT22;901;48.142;11.516;2022-08-21T15:23:57;25.00;99.90
1806;DHT22;901;48.142;11.516;2022-08-21T15:26:24;24.70;99.90
1806;DHT22;901;48.142;11.516;2022-08-21T15:28:51;24.80;99.90
1806;DHT22;901;48.142;11.516;2022-08-21T15:31:18;25.00;99.90
1806;DHT22;901;48.142;11.516;2022-08-21T15:33:45;25.00;99.90
1806;DHT22;901;48.142;11.516;2022-08-21T15:36:12;24.90;99.90
1806;DHT22;901;48.142;11.516;2022-08-21T15:38:40;24.80;99.90
1806;DHT22;901;48.142;11.516;2022-08-21T15:41:07;24.80;99.90
1806;DHT22;901;48.142;11.516;2022-08-21T15:43:39;24.80;99.90
1806;DHT22;901;48.142;11.516;2022-08-21T15:46:09;24.80;99.90
1806;DHT22;901;48.142;11.516;2022-08-21T15:48:36;24.80;99.90
1806;DHT22;901;48.142;11.516;2022-08-21T15:51:03;24.60;99.90
1806;DHT22;901;48.142;11.516;2022-08-21T15:53:30;24.60;99.90
1806;DHT22;901;48.142;11.516;2022-08-21T15:56:03;24.60;99.90
1806;DHT22;901;48.142;11.516;2022-08-21T15:58:30;24.50;99.90
1806;DHT22;901;48.142;11.516;2022-08-21T16:00:59;24.40;99.90
1806;DHT22;901;48.142;11.516;2022-08-21T16:03:26;24.50;99.90
1806;DHT22;901;48.142;11.516;2022-08-21T16:05:54;24.40;99.90
1806;DHT22;901;48.142;11.516;2022-08-21T16:08:23;24.50;99.90
1806;DHT22;901;48.142;11.516;2022-08-21T16:10:51;24.40;99.90
1806;DHT22;901;48.142;11.516;2022-08-21T16:13:23;24.50;99.90
1806;DHT22;901;48.142;11.516;2022-08-21T16:15:51;24.60;99.90
1806;DHT22;901;48.142;11.516;2022-08-21T16:18:19;24.60;99.90